Weather History for Faribault, MN

Change the Weather History Date:

Wednesday, May 13, 2009

  Actual Average Record
Temperature  
Mean Temperature 64 °F -  
Max Temperature 71 °F 69 °F 120 °F (1997)
Min Temperature 57 °F 42 °F 27 °F (1953)
Degree Days  
Heating Degree Days 1    
Growing Degree Days 14 (Base 50)    
Moisture  
Dew Point 56 °F    
Average Humidity 76    
Maximum Humidity 94    
Minimum Humidity 31    
Precipitation  
Precipitation 0.27 in - - ()
Sea Level Pressure  
Sea Level Pressure 29.59 in    
Wind  
Wind Speed 16 mph (SSW)    
Max Wind Speed 39 mph    
Max Gust Speed 47 mph    
Visibility 8 miles    
Events Rain , Thunderstorm    
Averages and records for this station are not official NWS values.
T = Trace of Precipitation, MM = Missing Value Source: NWS Daily Summary

Daily Weather History Graph

Daily Weather History Graph

Search for Another Location

Airport:

Trip Planner

Search our weather history database for the weather conditions in past years. The results will help you decide how hot, cold, wet, or windy it might be!

Date:

Astronomy

May. 13, 2009 Rise Set
Actual Time 5:48 AM CDT 8:31 PM CDT
Civil Twilight 5:14 AM CDT 9:05 PM CDT
Nautical Twilight 4:32 AM CDT 9:47 PM CDT
Astronomical Twilight 3:44 AM CDT 10:36 PM CDT
Moon 12:14 AM CDT (5/13) 8:54 AM CDT (5/13)
Length of Visible Light 15h 50m
Length of Day
14h 43m
Waning Gibbous, 82% of the Moon is Illuminated
May 13
Waning Gibbous
May 17
Last Quarter
May 24
New
May 30
First Quarter
Jun 7
Full

Hourly Weather History & Observations

Time (CDT) Temp. Dew Point Humidity Pressure Visibility Wind Dir Wind Speed Gust Speed Precip Events Conditions
12:15 AM 62.6 °F 53.6 °F 72% 29.66 in 10.0 mi SE 24.2 mph 33.4 mph N/A   Overcast
12:35 AM 60.8 °F 53.6 °F 77% 29.66 in 10.0 mi SSE 27.6 mph 39.1 mph N/A   Overcast
12:54 AM 60.8 °F 53.6 °F 77% 29.66 in 7.0 mi SE 23.0 mph 32.2 mph N/A   Overcast
1:15 AM 57.2 °F 55.4 °F 94% 29.67 in 2.5 mi SSE 19.6 mph 28.8 mph N/A Rain Light Rain
1:35 AM 57.2 °F 55.4 °F 94% 29.66 in 2.5 mi SSE 19.6 mph 26.5 mph N/A Rain Rain
1:54 AM 57.2 °F 55.4 °F 94% 29.66 in 3.0 mi SE 17.3 mph 24.2 mph N/A   Light Drizzle
2:15 AM 57.2 °F 55.4 °F 94% 29.66 in 3.0 mi SSE 18.4 mph 25.3 mph N/A Rain Light Rain
2:35 AM 57.2 °F 55.4 °F 94% 29.65 in 3.0 mi SSE 12.7 mph 23.0 mph 0.01 in Rain Light Rain
2:55 AM 57.2 °F 55.4 °F 94% 29.65 in 2.5 mi SSE 12.7 mph 21.9 mph 0.01 in Rain Light Rain
3:14 AM 57.2 °F 55.4 °F 94% 29.63 in 5.0 mi SSE 18.4 mph 25.3 mph N/A   Overcast
3:34 AM 57.2 °F 55.4 °F 94% 29.59 in 7.0 mi SE 19.6 mph 26.5 mph N/A   Overcast
3:54 AM 57.2 °F 55.4 °F 94% 29.62 in 10.0 mi SSE 17.3 mph 25.3 mph N/A   Overcast
4:14 AM 59.0 °F 55.4 °F 88% 29.63 in 10.0 mi SSE 18.4 mph 23.0 mph N/A   Overcast
4:35 AM 59.0 °F 55.4 °F 88% 29.63 in 3.0 mi SSE 16.1 mph 26.5 mph N/A Rain Rain
4:54 AM 57.2 °F 55.4 °F 94% 29.63 in 3.0 mi SSE 13.8 mph 21.9 mph N/A   Light Drizzle
5:14 AM 57.2 °F 55.4 °F 94% 29.62 in 4.0 mi SSE 16.1 mph 25.3 mph N/A Rain Light Rain
5:35 AM 57.2 °F 55.4 °F 94% 29.60 in 5.0 mi SSE 17.3 mph 26.5 mph N/A   Overcast
5:55 AM 59.0 °F 55.4 °F 88% 29.62 in 10.0 mi SSE 18.4 mph 25.3 mph N/A   Overcast
6:15 AM 59.0 °F 55.4 °F 88% 29.62 in 10.0 mi South 12.7 mph 24.2 mph N/A   Overcast
6:34 AM 59.0 °F 55.4 °F 88% 29.60 in 7.0 mi SSE 12.7 mph 21.9 mph N/A Rain Light Rain
6:54 AM 59.0 °F 57.2 °F 94% 29.59 in 5.0 mi SSE 15.0 mph 24.2 mph N/A   Overcast
7:14 AM 60.8 °F 57.2 °F 88% 29.56 in 5.0 mi SSE 18.4 mph 26.5 mph N/A   Overcast
7:35 AM 60.8 °F 57.2 °F 88% 29.58 in 5.0 mi South 10.4 mph 18.4 mph N/A   Overcast
7:54 AM 60.8 °F 57.2 °F 88% 29.59 in 5.0 mi South 11.5 mph 16.1 mph N/A   Overcast
8:14 AM 60.8 °F 57.2 °F 88% 29.59 in 5.0 mi South 5.8 mph - N/A   Overcast
8:35 AM 62.6 °F 59.0 °F 88% 29.58 in 7.0 mi South 5.8 mph - N/A   Overcast
8:54 AM 62.6 °F 59.0 °F 88% 29.58 in 7.0 mi South 6.9 mph - N/A   Overcast
9:14 AM 62.6 °F 60.8 °F 94% 29.58 in 7.0 mi South 4.6 mph - N/A   Overcast
9:34 AM 62.6 °F 60.8 °F 94% 29.58 in 10.0 mi South 4.6 mph - N/A   Overcast
9:54 AM 64.4 °F 60.8 °F 88% 29.57 in 10.0 mi SSE 6.9 mph - N/A   Overcast
10:14 AM 64.4 °F 60.8 °F 88% 29.56 in 7.0 mi SSE 5.8 mph - N/A   Overcast
10:35 AM 66.2 °F 60.8 °F 83% 29.57 in 10.0 mi SSE 9.2 mph - N/A   Overcast
10:54 AM 66.2 °F 60.8 °F 83% 29.57 in 10.0 mi SSW 3.5 mph - N/A   Overcast
11:14 AM 68.0 °F 60.8 °F 78% 29.57 in 10.0 mi South 5.8 mph - N/A   Overcast
11:35 AM 69.8 °F 60.8 °F 73% 29.57 in 10.0 mi SSW 6.9 mph - N/A   Mostly Cloudy
11:54 AM 69.8 °F 60.8 °F 73% 29.57 in 10.0 mi SSW 6.9 mph - N/A   Mostly Cloudy
12:14 PM 69.8 °F 60.8 °F 73% 29.57 in 10.0 mi SW 6.9 mph - N/A   Mostly Cloudy
12:35 PM 71.6 °F 60.8 °F 69% 29.58 in 10.0 mi South 8.1 mph - N/A   Mostly Cloudy
12:54 PM 71.6 °F 60.8 °F 69% 29.57 in 10.0 mi SSW 8.1 mph - N/A   Mostly Cloudy
1:15 PM 71.6 °F 60.8 °F 69% 29.57 in 10.0 mi SSW 10.4 mph - N/A   Mostly Cloudy
1:35 PM 71.6 °F 62.6 °F 73% 29.56 in 7.0 mi SW 8.1 mph - N/A Rain Light Rain
1:55 PM 69.8 °F 60.8 °F 73% 29.55 in 10.0 mi WSW 5.8 mph - N/A Thunderstorm Mostly Cloudy
2:15 PM 66.2 °F 62.6 °F 88% 29.58 in 3.0 mi WSW 9.2 mph 17.3 mph 0.23 in Rain Heavy Rain
2:35 PM 68.0 °F 60.8 °F 78% 29.58 in 10.0 mi WNW 8.1 mph - 0.26 in Rain , Thunderstorm Light Thunderstorms and Rain
2:54 PM 69.8 °F 57.2 °F 64% 29.57 in 10.0 mi West 12.7 mph - 0.26 in   Mostly Cloudy
3:14 PM 69.8 °F 55.4 °F 60% 29.57 in 10.0 mi West 6.9 mph 11.5 mph N/A   Overcast
3:35 PM 69.8 °F 55.4 °F 60% 29.56 in 10.0 mi WNW 6.9 mph - N/A   Overcast
3:55 PM 69.8 °F 53.6 °F 56% 29.57 in 10.0 mi West 9.2 mph - N/A   Overcast
4:14 PM 69.8 °F 53.6 °F 56% 29.56 in 10.0 mi West 10.4 mph - N/A   Overcast
4:35 PM 71.6 °F 51.8 °F 50% 29.56 in 10.0 mi West 13.8 mph 19.6 mph N/A   Scattered Clouds
4:55 PM 71.6 °F 48.2 °F 43% 29.56 in 10.0 mi West 16.1 mph 25.3 mph N/A   Scattered Clouds
5:14 PM 71.6 °F 50.0 °F 46% 29.57 in 10.0 mi West 9.2 mph 16.1 mph N/A   Clear
5:35 PM 71.6 °F 46.4 °F 41% 29.55 in 10.0 mi West 15.0 mph 23.0 mph N/A   Clear
5:54 PM 71.6 °F 44.6 °F 38% 29.54 in 10.0 mi West 13.8 mph 21.9 mph N/A   Clear
6:14 PM 71.6 °F 46.4 °F 41% 29.54 in 10.0 mi West 10.4 mph 16.1 mph N/A   Clear
6:34 PM 69.8 °F 44.6 °F 40% 29.56 in 10.0 mi WSW 10.4 mph 16.1 mph N/A   Clear
6:55 PM 69.8 °F 37.4 °F 31% 29.58 in 10.0 mi West 39.1 mph 47.2 mph N/A   Clear
7:14 PM 69.8 °F 37.4 °F 31% 29.57 in 10.0 mi West 12.7 mph 20.7 mph N/A   Clear
7:34 PM 69.8 °F 37.4 °F 31% 29.58 in 10.0 mi West 27.6 mph 41.4 mph N/A   Clear
7:55 PM 66.2 °F 35.6 °F 32% 29.60 in 10.0 mi West 27.6 mph 36.8 mph N/A   Clear
8:14 PM 66.2 °F 32.0 °F 28% 29.61 in 10.0 mi West 24.2 mph 34.5 mph N/A   Scattered Clouds
8:34 PM 64.4 °F 32.0 °F 30% 29.60 in 10.0 mi West 20.7 mph 29.9 mph N/A   Scattered Clouds
8:55 PM 62.6 °F 32.0 °F 32% 29.60 in 10.0 mi West 16.1 mph 28.8 mph N/A   Clear
9:14 PM 60.8 °F 30.2 °F 31% 29.62 in 10.0 mi West 11.5 mph 18.4 mph N/A   Clear
9:35 PM 60.8 °F 28.4 °F 29% 29.63 in 10.0 mi West 16.1 mph 27.6 mph N/A   Clear
9:55 PM 60.8 °F 26.6 °F 27% 29.64 in 10.0 mi West 17.3 mph 29.9 mph N/A   Clear
10:14 PM 60.8 °F 28.4 °F 29% 29.66 in 10.0 mi West 16.1 mph 23.0 mph N/A   Clear
10:34 PM 59.0 °F 28.4 °F 31% 29.67 in 10.0 mi West 12.7 mph 21.9 mph N/A   Clear
10:54 PM 57.2 °F 30.2 °F 36% 29.67 in 10.0 mi West 12.7 mph 20.7 mph N/A   Clear
11:14 PM 57.2 °F 32.0 °F 38% 29.68 in 10.0 mi West 13.8 mph 19.6 mph N/A   Clear
11:34 PM 57.2 °F 33.8 °F 41% 29.68 in 10.0 mi West 12.7 mph 20.7 mph N/A   Clear
11:54 PM 57.2 °F 35.6 °F 44% 29.69 in 10.0 mi West 12.7 mph 19.6 mph N/A   Clear